Classifiche di sempre
Migliori tempi personali validi di team tra tutti gli eventi e le stagioni. Ogni team compare una sola volta per divisione.
Cerca per nome e apri la pagina in cui è classificato questo record di divisione.
137,494 team in classifica
| Pos. | Pos. AG | Team | Nazionalità | Categoria età | TempoMiglior tempo | Distacco |
|---|---|---|---|---|---|---|
| 8451 | -- | Kelly Rohan & Lauren GrahamGBR · W WU29 | GBR | W WU29 | 1:11:34 | +18:13 |
| 8452 | #2938 | Kristel Perry & Natalie SharpeGBR · W 30-34 · AG #2938 | GBR | W 30-34 | 1:11:34 | +18:13 |
| 8453 | #2939 | Charlène Fernandes & Perrine VauchetFRA · W 30-34 · AG #2939 | FRA | W 30-34 | 1:11:34 | +18:13 |
| 8454 | #2940 | Ragnhild Seim & Sandra SelsethNOR · W 30-34 · AG #2940 | NOR | W 30-34 | 1:11:34 | +18:13 |
| 8455 | #1479 | Noa Peters & Nikita SnackersNED · W 25-29 · AG #1479 | NED | W 25-29 | 1:11:34 | +18:13 |
| 8456 | #2941 | Samantha Place & Tia MilesGBR · W 30-34 · AG #2941 | GBR | W 30-34 | 1:11:34 | +18:13 |
| 8457 | #631 | Lilli Heil & Melissa WahlGER · W 16-24 · AG #631 | GER | W 16-24 | 1:11:34 | +18:13 |
| 8458 | #2942 | Bettina Schöberl & Lisa StamplerAUT · W 30-34 · AG #2942 | AUT | W 30-34 | 1:11:34 | +18:13 |
| 8459 | #2943 | Nicole Halper & Sarah GrantUSA · W 30-34 · AG #2943 | USA | W 30-34 | 1:11:34 | +18:13 |
| 8460 | #2944 | Samantha Searle & Cody BaileyAUS · W 30-34 · AG #2944 | AUS | W 30-34 | 1:11:34 | +18:13 |
| 8461 | #2945 | Nicole Wöhr & Yvonne Theresa Endale Eboumbou EbongueGER · W 30-34 · AG #2945 | GER | W 30-34 | 1:11:34 | +18:13 |
| 8462 | #1477 | Lisanne Boere & Nadia BoereNED · W 25-29 · AG #1477 | NED | W 25-29 | 1:11:34 | +18:13 |
| 8463 | #2946 | Marta Alves & Tania AlmeidaPOR · W 30-34 · AG #2946 | POR | W 30-34 | 1:11:34 | +18:13 |
| 8464 | #1480 | Lena Salino & Morgan HricayUSA · W 25-29 · AG #1480 | USA | W 25-29 | 1:11:35 | +18:14 |
| 8465 | #2947 | Paula Albaladejo & Patricia MuñozESP · W 30-34 · AG #2947 | ESP | W 30-34 | 1:11:35 | +18:14 |
| 8466 | #1481 | Elena Macciò & Lorenza OggianoITA · W 25-29 · AG #1481 | ITA | W 25-29 | 1:11:35 | +18:14 |
| 8467 | #1482 | Fie Fløe Nielsen & Amanda Ørsted HolmDEN · W 25-29 · AG #1482 | DEN | W 25-29 | 1:11:35 | +18:14 |
| 8468 | #2948 | Megan Moreno & Cassandra FaddisUSA · W 30-34 · AG #2948 | USA | W 30-34 | 1:11:35 | +18:14 |
| 8469 | #767 | Jacinta Hicks & Genevieve AngleyAUS · W 35-39 · AG #767 | AUS | W 35-39 | 1:11:35 | +18:14 |
| 8470 | #1483 | Sarah Murrison & Sophia MurrisonGBR · W 25-29 · AG #1483 | GBR | W 25-29 | 1:11:35 | +18:14 |
| 8471 | #2949 | Liz Richards & Ellie WalshGBR · W 30-34 · AG #2949 | GBR | W 30-34 | 1:11:35 | +18:14 |
| 8472 | #55 | Bianca Van Diepen & Karin BoxNED · W 50-54 · AG #55 | NED | W 50-54 | 1:11:35 | +18:14 |
| 8473 | #1484 | Anne Huvenaars & Paula LucardieNED · W 25-29 · AG #1484 | NED | W 25-29 | 1:11:35 | +18:14 |
| 8474 | #768 | Amber Rizza & Jana DemmerUSA · W 35-39 · AG #768 | USA | W 35-39 | 1:11:35 | +18:14 |
| 8475 | #769 | Caroline Hardie & Emma WeirGBR · W 35-39 · AG #769 | GBR | W 35-39 | 1:11:35 | +18:14 |
Pagina 339 di 5,500